createdAt,value
2018-11-13T00:00:52.863Z,9.50
2018-11-13T00:03:20.561Z,9.50
2018-11-13T00:05:51.590Z,9.60
2018-11-13T00:08:19.328Z,9.60
2018-11-13T00:10:47.109Z,9.60
2018-11-13T00:13:18.472Z,9.60
2018-11-13T00:15:46.235Z,9.60
2018-11-13T00:18:13.980Z,9.60
2018-11-13T00:20:51.161Z,9.50
2018-11-13T00:23:18.867Z,9.50
2018-11-13T00:25:46.627Z,9.50
2018-11-13T00:28:20.986Z,9.50
2018-11-13T00:30:48.716Z,9.50
2018-11-13T00:33:16.558Z,9.50
2018-11-13T00:35:52.488Z,9.50
2018-11-13T00:38:20.238Z,9.50
2018-11-13T00:40:47.924Z,9.50
2018-11-13T00:43:23.854Z,9.40
2018-11-13T00:45:55.532Z,9.40
2018-11-13T00:48:23.073Z,9.40
2018-11-13T00:50:54.582Z,9.40
2018-11-13T00:53:22.718Z,9.40
2018-11-13T00:55:50.477Z,9.30
2018-11-13T00:58:25.450Z,9.30
2018-11-13T01:00:53.517Z,9.30
2018-11-13T01:03:21.441Z,9.40
2018-11-13T01:05:55.907Z,9.40
2018-11-13T01:08:23.657Z,9.40
2018-11-13T01:10:51.399Z,9.40
2018-11-13T01:13:27.936Z,9.40
2018-11-13T01:15:55.749Z,9.30
2018-11-13T01:18:23.490Z,9.40
2018-11-13T01:20:57.349Z,9.40
2018-11-13T01:23:25.374Z,9.40
2018-11-13T01:25:52.850Z,9.30
2018-11-13T01:28:26.536Z,9.30
2018-11-13T01:30:54.306Z,9.30
2018-11-13T01:33:22.061Z,9.30
2018-11-13T01:35:49.831Z,9.30
2018-11-13T01:38:17.647Z,9.30
2018-11-13T01:40:45.374Z,9.30
2018-11-13T01:43:13.169Z,9.30
2018-11-13T01:45:47.901Z,9.30
2018-11-13T01:48:16.104Z,9.30
2018-11-13T01:50:43.828Z,9.40
2018-11-13T01:53:15.949Z,9.40
2018-11-13T01:55:43.693Z,9.40
2018-11-13T01:58:11.365Z,9.40
2018-11-13T02:00:52.464Z,9.40
2018-11-13T02:03:20.170Z,9.40
2018-11-13T02:05:47.995Z,9.40
2018-11-13T02:08:17.454Z,9.30
2018-11-13T02:10:45.168Z,9.30
2018-11-13T02:13:12.890Z,9.30
2018-11-13T02:15:52.206Z,9.30
2018-11-13T02:18:19.990Z,9.30
2018-11-13T02:20:47.683Z,9.30
2018-11-13T02:23:19.541Z,9.30
2018-11-13T02:25:47.222Z,9.30
2018-11-13T02:28:14.968Z,9.30
2018-11-13T02:30:47.153Z,9.30
2018-11-13T02:33:14.973Z,9.30
2018-11-13T02:35:42.786Z,9.30
2018-11-13T02:38:16.952Z,9.30
2018-11-13T02:40:44.773Z,9.30
2018-11-13T02:43:12.567Z,9.30
2018-11-13T02:45:49.627Z,9.30
2018-11-13T02:48:17.374Z,9.30
2018-11-13T02:50:45.084Z,9.30
2018-11-13T02:53:19.303Z,9.30
2018-11-13T02:55:46.990Z,9.30
2018-11-13T02:58:14.735Z,9.30
2018-11-13T03:00:48.498Z,9.30
2018-11-13T03:03:16.433Z,9.30
2018-11-13T03:05:44.240Z,9.30
2018-11-13T03:08:19.674Z,9.30
2018-11-13T03:10:47.378Z,9.30
2018-11-13T03:13:15.143Z,9.30
2018-11-13T03:15:50.360Z,9.30
2018-11-13T03:18:18.072Z,9.30
2018-11-13T03:20:45.840Z,9.20
2018-11-13T03:23:21.457Z,9.20
2018-11-13T03:25:49.182Z,9.30
2018-11-13T03:28:16.927Z,9.30
2018-11-13T03:30:57.130Z,9.30
2018-11-13T03:33:25.122Z,9.30
2018-11-13T03:35:52.877Z,9.40
2018-11-13T03:38:20.556Z,9.40
2018-11-13T03:40:48.349Z,9.50
2018-11-13T03:43:16.237Z,9.50
2018-11-13T03:45:49.990Z,9.60
2018-11-13T03:48:17.800Z,9.60
2018-11-13T03:50:45.570Z,9.70
2018-11-13T03:53:19.446Z,9.70
2018-11-13T03:55:48.241Z,9.80
2018-11-13T03:58:15.960Z,9.80
2018-11-13T04:00:51.118Z,9.90
2018-11-13T04:03:18.875Z,9.90
2018-11-13T04:05:46.617Z,9.90
2018-11-13T04:08:17.765Z,10.00
2018-11-13T04:10:47.752Z,10.00
2018-11-13T04:13:15.437Z,10.10
2018-11-13T04:15:43.177Z,10.10
2018-11-13T04:18:10.918Z,10.10
2018-11-13T04:20:40.653Z,10.10
2018-11-13T04:23:08.403Z,10.10
2018-11-13T04:25:36.081Z,10.10
2018-11-13T04:28:13.055Z,10.10
2018-11-13T04:30:40.787Z,10.10
2018-11-13T04:33:08.744Z,10.00
2018-11-13T04:35:40.088Z,10.00
2018-11-13T04:38:07.859Z,10.00
2018-11-13T04:40:35.593Z,9.90
2018-11-13T04:43:15.928Z,9.90
2018-11-13T04:45:43.659Z,9.80
2018-11-13T04:48:11.589Z,9.80
2018-11-13T04:50:52.326Z,9.80
2018-11-13T04:53:20.317Z,9.80
2018-11-13T04:55:48.085Z,9.80
2018-11-13T04:58:15.789Z,9.90
2018-11-13T05:00:43.535Z,9.90
2018-11-13T05:03:13.470Z,9.80
2018-11-13T05:05:41.197Z,9.80
2018-11-13T05:08:08.900Z,9.80
2018-11-13T05:10:46.039Z,9.80
2018-11-13T05:13:13.853Z,9.70
2018-11-13T05:15:41.882Z,9.70
2018-11-13T05:18:15.897Z,9.70
2018-11-13T05:20:43.694Z,9.70
2018-11-13T05:23:25.680Z,9.60
2018-11-13T05:25:53.449Z,9.60
2018-11-13T05:28:31.008Z,9.60
2018-11-13T05:30:59.465Z,9.60
2018-11-13T05:33:35.188Z,9.60
2018-11-13T05:36:02.977Z,9.60
2018-11-13T05:38:44.423Z,9.60
2018-11-13T05:41:12.167Z,9.60
2018-11-13T05:43:57.775Z,9.50
2018-11-13T05:46:25.546Z,9.50
2018-11-13T05:49:01.292Z,9.50
2018-11-13T05:51:29.002Z,9.50
2018-11-13T05:54:10.500Z,9.40
2018-11-13T05:56:38.207Z,9.40
2018-11-13T05:59:13.777Z,9.40
2018-11-13T06:01:41.481Z,9.30
2018-11-13T06:04:20.187Z,9.20
2018-11-13T06:06:48.006Z,9.20
2018-11-13T06:09:28.012Z,9.20
2018-11-13T06:11:56.791Z,9.20
2018-11-13T06:14:32.896Z,9.20
2018-11-13T06:17:00.696Z,9.10
2018-11-13T06:19:40.805Z,9.20
2018-11-13T06:22:08.596Z,9.20
2018-11-13T06:24:48.951Z,9.10
2018-11-13T06:27:16.668Z,9.10
2018-11-13T06:32:24.941Z,9.10
2018-11-13T06:37:29.973Z,9.10
2018-11-13T06:40:08.632Z,9.10
2018-11-13T06:42:36.672Z,9.10
2018-11-13T06:49:50.516Z,9.30
2018-11-13T06:52:23.433Z,9.50
2018-11-13T06:54:58.856Z,9.60
2018-11-13T06:57:30.953Z,9.70
2018-11-13T06:59:58.940Z,9.90
2018-11-13T07:02:36.767Z,10.00
2018-11-13T07:05:05.647Z,10.20
2018-11-13T07:07:42.452Z,10.30
2018-11-13T07:10:12.098Z,10.40
2018-11-13T07:12:52.393Z,10.40
2018-11-13T07:16:18.995Z,10.50
2018-11-13T07:18:58.954Z,10.50
2018-11-13T07:21:27.521Z,10.50
2018-11-13T07:24:06.639Z,10.50
2018-11-13T07:26:35.205Z,10.50
2018-11-13T07:29:13.452Z,10.50
2018-11-13T07:31:42.002Z,10.50
2018-11-13T07:34:21.533Z,10.50
2018-11-13T07:36:50.680Z,10.60
2018-11-13T07:39:28.580Z,10.60
2018-11-13T07:41:57.142Z,10.60
2018-11-13T07:44:37.100Z,10.60
2018-11-13T07:47:06.825Z,10.60
2018-11-13T07:49:44.865Z,10.60
2018-11-13T07:52:13.429Z,10.60
2018-11-13T07:54:49.365Z,10.60
2018-11-13T07:57:18.309Z,10.70
2018-11-13T08:00:00.007Z,10.70
2018-11-13T08:02:28.999Z,10.70
2018-11-13T08:05:08.956Z,10.70
2018-11-13T08:07:38.541Z,10.60
2018-11-13T08:10:14.754Z,10.60
2018-11-13T08:12:43.549Z,10.50
2018-11-13T08:15:19.178Z,10.40
2018-11-13T08:17:47.813Z,10.40
2018-11-13T08:20:26.987Z,10.40
2018-11-13T08:22:55.754Z,10.50
2018-11-13T08:25:30.793Z,10.60
2018-11-13T08:27:59.321Z,10.80
2018-11-13T08:30:41.193Z,11.00
2018-11-13T08:33:09.784Z,11.20
2018-11-13T08:35:46.752Z,11.20
2018-11-13T08:38:15.437Z,11.30
2018-11-13T08:40:54.514Z,11.40
2018-11-13T08:43:23.201Z,11.50
2018-11-13T08:46:01.329Z,11.60
2018-11-13T08:48:29.940Z,11.70
2018-11-13T08:51:10.360Z,11.70
2018-11-13T08:53:39.486Z,11.70
2018-11-13T08:56:17.570Z,11.80
2018-11-13T08:58:46.196Z,11.80
2018-11-13T09:01:23.184Z,11.90
2018-11-13T09:03:51.473Z,11.90
2018-11-13T09:06:33.457Z,12.00
2018-11-13T09:09:02.065Z,11.90
2018-11-13T09:11:39.329Z,11.90
2018-11-13T09:14:08.350Z,11.90
2018-11-13T09:16:45.273Z,12.00
2018-11-13T09:19:14.031Z,12.00
2018-11-13T09:21:53.846Z,12.00
2018-11-13T09:24:22.508Z,12.10
2018-11-13T09:26:57.064Z,12.10
2018-11-13T09:29:25.574Z,12.10
2018-11-13T09:32:02.064Z,12.50
2018-11-13T09:34:30.648Z,13.20
2018-11-13T09:37:07.842Z,13.60
2018-11-13T09:39:36.365Z,14.00
2018-11-13T09:42:18.900Z,14.50
2018-11-13T09:44:47.479Z,14.80
2018-11-13T09:47:21.654Z,14.70
2018-11-13T09:49:50.501Z,14.60
2018-11-13T09:52:27.204Z,14.40
2018-11-13T09:54:56.069Z,14.30
2018-11-13T09:57:24.661Z,14.30
2018-11-13T09:59:53.418Z,14.00
2018-11-13T10:02:22.757Z,13.90
2018-11-13T10:04:53.257Z,13.60
2018-11-13T10:07:21.413Z,13.30
2018-11-13T10:09:59.978Z,13.30
2018-11-13T10:12:28.777Z,13.30
2018-11-13T10:15:12.457Z,13.30
2018-11-13T10:17:41.111Z,13.20
2018-11-13T10:20:15.045Z,13.30
2018-11-13T10:22:45.560Z,13.30
2018-11-13T10:25:20.352Z,13.30
2018-11-13T10:27:49.022Z,13.30
2018-11-13T10:30:25.795Z,13.20
2018-11-13T10:32:55.017Z,13.20
2018-11-13T10:35:35.777Z,13.20
2018-11-13T10:38:04.685Z,13.20
2018-11-13T10:40:41.772Z,13.20
2018-11-13T10:43:10.400Z,13.10
2018-11-13T10:45:46.081Z,12.90
2018-11-13T10:48:14.665Z,12.80
2018-11-13T10:50:51.015Z,12.80
2018-11-13T10:53:19.569Z,12.90
2018-11-13T10:55:48.104Z,13.20
2018-11-13T10:58:16.685Z,13.40
2018-11-13T11:00:50.531Z,13.50
2018-11-13T11:03:27.549Z,13.50
2018-11-13T11:05:56.179Z,13.50
2018-11-13T11:08:28.097Z,13.50
2018-11-13T11:10:56.636Z,13.60
2018-11-13T11:13:32.355Z,13.70
2018-11-13T11:16:01.284Z,13.70
2018-11-13T11:18:41.014Z,13.70
2018-11-13T11:21:09.941Z,13.80
2018-11-13T11:23:42.519Z,13.80
2018-11-13T11:26:13.318Z,13.90
2018-11-13T11:28:42.071Z,13.90
2018-11-13T11:31:10.701Z,14.10
2018-11-13T11:33:39.160Z,14.10
2018-11-13T11:36:13.242Z,14.10
2018-11-13T11:38:42.141Z,14.20
2018-11-13T11:41:19.318Z,14.20
2018-11-13T11:43:47.909Z,14.20
2018-11-13T11:46:31.994Z,14.20
2018-11-13T11:49:00.578Z,14.20
2018-11-13T11:51:36.543Z,14.00
2018-11-13T11:54:05.987Z,14.00
2018-11-13T11:56:43.011Z,14.00
2018-11-13T11:59:11.543Z,13.80
2018-11-13T12:01:48.513Z,13.90
2018-11-13T12:04:17.120Z,14.10
2018-11-13T12:06:55.533Z,14.10
2018-11-13T12:09:24.060Z,14.20
2018-11-13T12:12:02.291Z,14.20
2018-11-13T12:14:30.865Z,14.20
2018-11-13T12:17:09.840Z,14.20
2018-11-13T12:19:38.384Z,14.20
2018-11-13T12:22:16.628Z,14.40
2018-11-13T12:24:46.188Z,14.40
2018-11-13T12:27:23.820Z,14.20
2018-11-13T12:29:52.963Z,14.10
2018-11-13T12:32:31.713Z,14.10
2018-11-13T12:35:00.608Z,14.10
2018-11-13T12:37:40.336Z,14.00
2018-11-13T12:40:09.618Z,13.80
2018-11-13T12:42:46.388Z,13.60
2018-11-13T12:45:13.551Z,13.50
2018-11-13T12:47:54.468Z,13.60
2018-11-13T12:50:23.012Z,13.80
2018-11-13T12:53:00.164Z,14.00
2018-11-13T12:55:28.785Z,14.10
2018-11-13T12:58:07.073Z,14.20
2018-11-13T13:00:35.616Z,14.30
2018-11-13T13:03:17.145Z,14.40
2018-11-13T13:05:45.705Z,14.50
2018-11-13T13:08:20.301Z,14.40
2018-11-13T13:10:48.944Z,14.30
2018-11-13T13:13:27.105Z,14.20
2018-11-13T13:15:55.658Z,14.20
2018-11-13T13:18:36.521Z,14.10
2018-11-13T13:21:05.622Z,14.00
2018-11-13T13:23:47.308Z,13.80
2018-11-13T13:26:16.361Z,13.70
2018-11-13T13:28:49.765Z,13.60
2018-11-13T13:31:18.334Z,13.60
2018-11-13T13:33:51.710Z,13.70
2018-11-13T13:36:23.463Z,13.80
2018-11-13T13:39:08.623Z,13.90
2018-11-13T13:41:36.936Z,13.90
2018-11-13T13:44:12.129Z,13.80
2018-11-13T13:46:40.795Z,13.70
2018-11-13T13:49:19.912Z,13.70
2018-11-13T13:51:48.422Z,13.60
2018-11-13T13:54:29.800Z,13.60
2018-11-13T13:56:58.473Z,13.60
2018-11-13T13:59:41.871Z,13.60
2018-11-13T14:02:10.666Z,13.40
2018-11-13T14:04:51.435Z,13.30
2018-11-13T14:07:19.953Z,13.20
2018-11-13T14:10:01.923Z,13.20
2018-11-13T14:12:31.104Z,13.20
2018-11-13T14:15:10.897Z,13.20
2018-11-13T14:17:41.092Z,13.20
2018-11-13T14:20:10.936Z,13.10
2018-11-13T14:22:52.499Z,13.00
2018-11-13T14:25:21.107Z,13.00
2018-11-13T14:27:49.655Z,13.10
2018-11-13T14:30:26.365Z,13.10
2018-11-13T14:33:02.605Z,13.00
2018-11-13T14:35:31.254Z,13.00
2018-11-13T14:38:00.678Z,13.00
2018-11-13T14:40:39.955Z,13.00
2018-11-13T14:43:15.125Z,12.90
2018-11-13T14:45:43.962Z,12.90
2018-11-13T14:48:13.048Z,13.00
2018-11-13T14:53:25.368Z,12.90
2018-11-13T14:55:54.192Z,12.90
2018-11-13T14:58:22.859Z,12.90
2018-11-13T15:01:05.396Z,12.80
2018-11-13T15:03:34.094Z,12.70
2018-11-13T15:06:02.825Z,12.60
2018-11-13T15:08:31.041Z,12.50
2018-11-13T15:11:29.658Z,12.40
2018-11-13T15:13:58.221Z,12.40
2018-11-13T15:16:26.889Z,12.20
2018-11-13T15:19:14.083Z,12.10
2018-11-13T15:21:42.933Z,12.00
2018-11-13T15:24:11.595Z,11.90
2018-11-13T15:26:56.032Z,11.90
2018-11-13T15:29:24.576Z,11.80
2018-11-13T15:31:53.227Z,11.70
2018-11-13T15:34:21.766Z,11.70
2018-11-13T15:45:16.108Z,11.60
2018-11-13T15:47:45.811Z,11.60
2018-11-13T15:50:26.374Z,11.50
2018-11-13T15:52:55.442Z,11.50
2018-11-13T15:55:24.050Z,11.50
2018-11-13T15:57:53.014Z,11.40
2018-11-13T16:03:01.339Z,11.40
2018-11-13T16:05:31.555Z,11.30
2018-11-13T16:08:03.797Z,11.20
2018-11-13T16:15:41.850Z,11.00
2018-11-13T16:18:12.189Z,11.00
2018-11-13T16:20:41.139Z,11.00
2018-11-13T16:23:16.686Z,11.00
2018-11-13T16:25:45.188Z,10.90
2018-11-13T16:28:14.218Z,10.80
2018-11-13T16:30:43.347Z,10.70
2018-11-13T16:33:15.100Z,10.60
2018-11-13T16:35:44.728Z,10.60
2018-11-13T16:38:13.804Z,10.60
2018-11-13T16:40:42.537Z,10.60
2018-11-13T16:43:11.114Z,10.70
2018-11-13T16:45:39.694Z,10.60
2018-11-13T16:50:50.129Z,10.60
2018-11-13T16:53:22.303Z,10.60
2018-11-13T16:58:58.139Z,10.40
2018-11-13T17:01:34.551Z,10.20
2018-11-13T17:07:01.394Z,10.20
2018-11-13T17:09:30.313Z,10.10
2018-11-13T17:12:00.178Z,10.10
2018-11-13T17:14:29.240Z,10.10
2018-11-13T17:16:58.201Z,10.10
2018-11-13T17:19:27.068Z,10.10
2018-11-13T17:22:06.340Z,10.00
2018-11-13T17:24:35.394Z,10.10
2018-11-13T17:27:04.169Z,10.10
2018-11-13T17:29:49.439Z,10.00
2018-11-13T17:32:18.377Z,9.90
2018-11-13T17:34:47.231Z,9.80
2018-11-13T17:37:16.003Z,9.80
2018-11-13T17:39:44.850Z,9.80
2018-11-13T17:42:23.704Z,9.80
2018-11-13T17:44:52.661Z,9.80
2018-11-13T17:47:21.402Z,9.80
2018-11-13T17:52:38.092Z,9.70
2018-11-13T17:55:07.726Z,9.80
2018-11-13T18:00:35.449Z,9.80
2018-11-13T18:05:52.139Z,9.80
2018-11-13T18:08:20.931Z,9.80
2018-11-13T18:11:10.545Z,9.70
2018-11-13T18:13:39.307Z,9.80
2018-11-13T18:16:08.133Z,9.80
2018-11-13T18:18:57.806Z,9.80
2018-11-13T18:21:27.242Z,9.80
2018-11-13T18:23:56.129Z,9.80
2018-11-13T18:26:37.593Z,9.80
2018-11-13T18:29:06.819Z,9.70
2018-11-13T18:31:35.638Z,9.70
2018-11-13T18:36:50.142Z,9.60
2018-11-13T18:39:19.256Z,9.60
2018-11-13T18:42:11.969Z,9.60
2018-11-13T18:44:41.056Z,9.50
2018-11-13T18:47:10.210Z,9.60
2018-11-13T18:49:55.920Z,9.60
2018-11-13T18:52:25.085Z,9.60
2018-11-13T18:54:54.275Z,9.60
2018-11-13T18:57:23.213Z,9.60
2018-11-13T18:59:51.655Z,9.60
2018-11-13T19:02:38.852Z,9.50
2018-11-13T19:05:07.994Z,9.50
2018-11-13T19:07:37.248Z,9.50
2018-11-13T19:10:20.940Z,9.40
2018-11-13T19:12:50.870Z,9.40
2018-11-13T19:15:23.686Z,9.30
2018-11-13T19:20:35.006Z,9.30
2018-11-13T19:26:01.161Z,9.30
2018-11-13T19:28:30.038Z,9.30
2018-11-13T19:30:58.962Z,9.30
2018-11-13T19:33:39.524Z,9.20
2018-11-13T19:36:08.413Z,9.20
2018-11-13T19:38:37.276Z,9.30
2018-11-13T19:41:23.438Z,9.20
2018-11-13T19:43:52.269Z,9.20
2018-11-13T19:46:21.042Z,9.20
2018-11-13T19:49:08.570Z,9.10
2018-11-13T19:51:37.763Z,9.10
2018-11-13T19:54:06.557Z,9.10
2018-11-13T19:59:23.013Z,9.00
2018-11-13T20:01:51.518Z,9.00
2018-11-13T20:04:21.690Z,9.10
2018-11-13T20:06:56.618Z,9.00
2018-11-13T20:09:25.420Z,9.00
2018-11-13T20:11:54.306Z,9.00
2018-11-13T20:14:23.104Z,9.10
2018-11-13T20:16:55.317Z,9.00
2018-11-13T20:19:24.097Z,9.00
2018-11-13T20:21:53.173Z,8.90
2018-11-13T20:27:08.355Z,8.90
2018-11-13T20:29:37.205Z,8.90
2018-11-13T20:32:29.749Z,8.80
2018-11-13T20:35:01.462Z,8.80
2018-11-13T20:37:30.213Z,8.70
2018-11-13T20:40:13.222Z,8.60
2018-11-13T20:42:42.679Z,8.60
2018-11-13T20:45:11.925Z,8.50
2018-11-13T20:47:54.190Z,8.50
2018-11-13T20:50:24.385Z,8.40
2018-11-13T20:52:52.976Z,8.40
2018-11-13T20:58:08.822Z,8.30
2018-11-13T21:00:38.102Z,8.20
2018-11-13T21:03:25.831Z,8.20
2018-11-13T21:05:55.364Z,8.10
2018-11-13T21:08:24.339Z,8.10
2018-11-13T21:11:15.130Z,8.10
2018-11-13T21:13:44.593Z,8.00
2018-11-13T21:16:13.419Z,8.10
2018-11-13T21:18:53.322Z,8.10
2018-11-13T21:21:22.054Z,8.20
2018-11-13T21:23:50.912Z,8.20
2018-11-13T21:26:38.413Z,8.20
2018-11-13T21:29:07.166Z,8.20
2018-11-13T21:31:36.453Z,8.20
2018-11-13T21:34:15.214Z,8.10
2018-11-13T21:36:47.816Z,8.10
2018-11-13T21:39:16.484Z,8.00
2018-11-13T21:41:45.156Z,7.90
2018-11-13T21:44:23.210Z,7.80
2018-11-13T21:46:51.909Z,7.80
2018-11-13T21:49:20.860Z,7.70
2018-11-13T21:51:49.596Z,7.70
2018-11-13T21:54:25.610Z,7.60
2018-11-13T21:56:54.147Z,7.60
2018-11-13T21:59:22.787Z,7.50
2018-11-13T22:02:20.858Z,7.40
2018-11-13T22:04:49.593Z,7.40
2018-11-13T22:07:18.291Z,7.40
2018-11-13T22:10:03.296Z,7.40
2018-11-13T22:12:31.935Z,7.30
2018-11-13T22:15:01.369Z,7.30
2018-11-13T22:17:45.431Z,7.30
2018-11-13T22:23:25.964Z,7.20
2018-11-13T22:25:54.840Z,7.20
2018-11-13T22:28:24.853Z,7.20
2018-11-13T22:31:03.908Z,7.20
2018-11-13T22:33:32.924Z,7.20
2018-11-13T22:36:02.025Z,7.20
2018-11-13T22:38:46.175Z,7.20
2018-11-13T22:41:15.541Z,7.10
2018-11-13T22:43:44.644Z,7.20
2018-11-13T22:46:26.430Z,7.10
2018-11-13T22:48:55.649Z,7.10
2018-11-13T22:51:24.756Z,7.10
2018-11-13T22:54:08.959Z,7.20
2018-11-13T22:56:38.652Z,7.10
2018-11-13T22:59:08.111Z,7.10
2018-11-13T23:01:58.754Z,7.10
2018-11-13T23:04:29.311Z,7.10
2018-11-13T23:06:58.311Z,7.10
2018-11-13T23:09:42.964Z,7.10
2018-11-13T23:12:11.967Z,7.10
2018-11-13T23:14:41.018Z,7.10
2018-11-13T23:17:33.406Z,7.10
2018-11-13T23:20:02.389Z,7.00
2018-11-13T23:22:31.182Z,7.00
2018-11-13T23:25:14.216Z,7.00
2018-11-13T23:27:44.679Z,7.00
2018-11-13T23:30:15.928Z,7.00
2018-11-13T23:33:05.008Z,7.00
2018-11-13T23:35:34.147Z,7.20
2018-11-13T23:38:03.935Z,7.20
2018-11-13T23:40:49.515Z,7.20
2018-11-13T23:43:20.776Z,7.30
2018-11-13T23:45:49.860Z,7.20
2018-11-13T23:48:32.083Z,7.20
2018-11-13T23:51:01.747Z,7.10
2018-11-13T23:53:31.465Z,7.10
2018-11-13T23:56:15.464Z,7.00
2018-11-13T23:58:44.475Z,7.00
